Time;durP1;ratioP1;P1;durP2;ratioP2;P2;SDS_P1;SDS_P2;PMS_P1;PMS_P2;Temp;Humidity;BMP_temperature;BMP_pressure;BME280_temperature;BME280_humidity;BME280_pressure;Samples;Min_cycle;Max_cycle;Signal;HPM_P1;HPM_P2
2022/10/01 00:00:04;;;;;;;55.00;39.20;;;27.50;99.90;;;;;;5052638;28;20102;-65
2022/10/01 00:02:30;;;;;;;51.67;35.30;;;27.60;99.90;;;;;;5052609;28;20538;-66
2022/10/01 00:04:57;;;;;;;48.10;33.40;;;27.70;99.90;;;;;;5052622;28;20029;-64
2022/10/01 00:07:23;;;;;;;43.40;28.40;;;27.80;99.90;;;;;;5052308;28;20032;-67
2022/10/01 00:09:50;;;;;;;35.60;25.98;;;27.80;99.90;;;;;;5051753;28;20114;-65
2022/10/01 00:12:16;;;;;;;40.10;27.50;;;27.80;99.90;;;;;;5052625;28;20028;-64
2022/10/01 00:14:43;;;;;;;43.45;28.23;;;27.80;99.90;;;;;;5052663;28;20095;-64
2022/10/01 00:17:10;;;;;;;44.95;30.63;;;27.90;99.90;;;;;;5052845;28;20100;-64
2022/10/01 00:19:37;;;;;;;75.28;63.25;;;27.90;99.90;;;;;;5052752;28;20025;-65
2022/10/01 00:22:03;;;;;;;70.45;47.28;;;27.90;99.90;;;;;;5052296;28;20099;-64
2022/10/01 00:24:30;;;;;;;44.05;30.50;;;28.00;99.90;;;;;;5051502;28;20594;-64
2022/10/01 00:26:56;;;;;;;43.50;30.10;;;27.90;99.90;;;;;;5052332;28;20048;-64
2022/10/01 00:29:23;;;;;;;51.30;34.70;;;28.00;99.90;;;;;;5052241;28;20021;-65
2022/10/01 00:31:49;;;;;;;49.40;32.10;;;28.10;99.90;;;;;;5052447;28;20020;-64
2022/10/01 00:34:16;;;;;;;36.40;29.08;;;28.20;99.90;;;;;;5052272;28;20095;-64
2022/10/01 00:36:42;;;;;;;41.50;31.15;;;28.10;99.90;;;;;;5052074;28;20090;-64
2022/10/01 00:39:11;;;;;;;46.35;31.45;;;28.10;99.90;;;;;;5079744;28;20482;-63
2022/10/01 00:41:40;;;;;;;48.75;33.35;;;28.20;99.90;;;;;;5085526;28;20021;-64
2022/10/01 00:44:26;;;;;;;44.03;31.02;;;28.30;99.90;;;;;;5083866;28;20432;-64
2022/10/01 00:46:55;;;;;;;50.67;34.97;;;28.30;99.90;;;;;;5082676;28;20532;-62
2022/10/01 00:49:28;;;;;;;48.63;31.20;;;28.50;99.90;;;;;;5078716;28;20123;-64
2022/10/01 00:51:56;;;;;;;;;;;28.50;99.90;;;;;;5069573;28;20033;-65
2022/10/01 00:54:34;;;;;;;52.65;31.23;;;28.60;99.90;;;;;;5055314;28;20382;-64
2022/10/01 00:57:03;;;;;;;49.72;32.03;;;28.50;99.90;;;;;;5068588;28;20071;-67
2022/10/01 00:59:31;;;;;;;47.22;31.42;;;28.60;99.90;;;;;;5075517;28;20074;-64
2022/10/01 01:01:58;;;;;;;47.30;33.17;;;28.50;99.90;;;;;;5073504;28;20033;-63
2022/10/01 01:04:25;;;;;;;50.08;33.65;;;28.50;99.90;;;;;;5055715;28;20025;-63
2022/10/01 01:06:56;;;;;;;48.33;33.33;;;28.50;99.90;;;;;;5055352;28;20036;-63
2022/10/01 01:09:34;;;;;;;56.10;35.07;;;28.50;99.90;;;;;;5054944;28;20025;-64
2022/10/01 01:12:01;;;;;;;43.45;34.60;;;28.50;99.90;;;;;;5055302;28;20079;-64
2022/10/01 01:14:46;;;;;;;49.92;33.65;;;28.40;99.90;;;;;;5055229;28;20075;-63
2022/10/01 01:17:23;;;;;;;74.82;50.35;;;28.50;99.90;;;;;;5072213;28;20024;-64
2022/10/01 01:20:09;;;;;;;63.15;45.55;;;28.70;99.90;;;;;;5075237;28;20032;-62
2022/10/01 01:22:42;;;;;;;53.45;34.45;;;28.80;99.90;;;;;;5075079;28;20036;-64
2022/10/01 01:25:21;;;;;;;52.10;36.58;;;28.80;99.90;;;;;;5075257;28;20051;-64
2022/10/01 01:28:17;;;;;;;45.95;33.05;;;28.80;99.90;;;;;;5070642;28;20051;-63
2022/10/01 01:30:46;;;;;;;45.50;32.58;;;28.80;99.90;;;;;;5054682;28;20040;-62
2022/10/01 01:33:17;;;;;;;43.65;31.35;;;28.80;99.90;;;;;;5055175;28;20021;-64
2022/10/01 01:35:48;;;;;;;49.40;34.60;;;28.80;99.90;;;;;;5054779;28;20054;-65
2022/10/01 01:38:20;;;;;;;51.87;31.00;;;28.70;99.90;;;;;;5054705;28;20021;-65
2022/10/01 01:40:50;;;;;;;49.55;30.58;;;28.70;99.90;;;;;;5054741;28;20082;-63
2022/10/01 01:43:23;;;;;;;47.88;35.05;;;28.90;99.90;;;;;;5054669;28;20029;-63
2022/10/01 01:45:53;;;;;;;47.55;32.08;;;29.00;99.90;;;;;;5054644;28;20407;-63
2022/10/01 01:48:23;;;;;;;43.55;33.22;;;29.00;99.90;;;;;;5054133;28;20053;-64
2022/10/01 01:51:08;;;;;;;55.13;38.88;;;29.00;99.90;;;;;;5054405;28;20433;-63
2022/10/01 01:53:34;;;;;;;51.45;33.45;;;29.10;99.90;;;;;;5054621;28;20618;-64
2022/10/01 01:56:02;;;;;;;50.08;35.45;;;29.30;99.90;;;;;;5054537;28;20499;-64
2022/10/01 01:58:31;;;;;;;56.38;35.97;;;29.30;99.90;;;;;;5054361;28;20036;-65
2022/10/01 02:00:58;;;;;;;45.00;33.80;;;29.20;99.90;;;;;;5054401;28;20425;-64
2022/10/01 02:03:28;;;;;;;47.17;32.70;;;29.20;99.90;;;;;;5061360;28;20113;-63
2022/10/01 02:06:04;;;;;;;48.05;31.80;;;29.20;99.90;;;;;;5054479;28;20104;-64
2022/10/01 02:08:49;;;;;;;49.35;33.15;;;29.20;99.90;;;;;;5055981;28;20032;-64
2022/10/01 02:11:35;;;;;;;48.40;36.53;;;29.20;99.90;;;;;;5074029;28;20032;-63
2022/10/01 02:14:10;;;;;;;47.97;34.70;;;29.40;99.90;;;;;;5074043;28;20436;-65
2022/10/01 02:16:47;;;;;;;48.05;36.22;;;29.60;99.90;;;;;;5078239;28;20026;-64
2022/10/01 02:19:21;;;;;;;60.42;38.25;;;29.70;99.90;;;;;;5074204;28;20506;-64
2022/10/01 02:21:49;;;;;;;49.55;37.70;;;29.70;99.90;;;;;;5074394;28;20029;-64
2022/10/01 02:24:36;;;;;;;47.08;36.20;;;29.60;99.90;;;;;;5073822;28;20043;-64
2022/10/01 02:27:10;;;;;;;49.97;37.67;;;29.50;99.90;;;;;;5073982;28;20060;-64
2022/10/01 02:29:39;;;;;;;53.80;38.90;;;29.40;99.90;;;;;;5073823;28;20036;-64
2022/10/01 02:32:07;;;;;;;58.55;39.22;;;29.40;99.90;;;;;;5074057;28;20027;-64
2022/10/01 02:34:34;;;;;;;49.47;36.38;;;29.40;99.90;;;;;;5074006;28;20032;-64
2022/10/01 02:37:05;;;;;;;58.70;38.33;;;29.50;99.90;;;;;;5074022;28;20473;-64
2022/10/01 02:39:33;;;;;;;53.90;38.83;;;29.50;99.90;;;;;;5073834;28;20437;-64
2022/10/01 02:42:01;;;;;;;60.88;42.35;;;29.50;99.90;;;;;;5073875;28;20021;-63
2022/10/01 02:44:37;;;;;;;340.33;228.48;;;29.60;99.90;;;;;;5073627;28;20024;-64
2022/10/01 02:47:10;;;;;;;304.55;246.88;;;29.70;99.90;;;;;;5073831;28;20425;-63
2022/10/01 02:49:40;;;;;;;59.95;43.67;;;29.80;99.90;;;;;;5073707;28;20621;-63
2022/10/01 02:52:11;;;;;;;49.15;38.78;;;29.90;99.90;;;;;;5073587;28;20036;-63
2022/10/01 02:54:51;;;;;;;55.92;37.10;;;30.00;99.90;;;;;;5073169;28;20025;-63
2022/10/01 02:57:22;;;;;;;51.25;40.33;;;30.10;99.90;;;;;;5073551;28;20095;-63
2022/10/01 02:59:50;;;;;;;56.78;40.30;;;30.30;99.90;;;;;;5073426;28;20530;-62
2022/10/01 03:02:17;;;;;;;117.13;88.57;;;30.30;99.90;;;;;;5072932;28;20047;-64
2022/10/01 03:04:46;;;;;;;74.72;52.65;;;30.40;99.90;;;;;;5067604;28;20391;-63
2022/10/01 03:07:16;;;;;;;61.83;43.20;;;30.60;99.90;;;;;;5073161;28;20056;-62
2022/10/01 03:09:43;;;;;;;50.53;36.03;;;30.80;99.90;;;;;;5057521;28;20028;-62
2022/10/01 03:12:10;;;;;;;59.53;35.30;;;31.00;99.90;;;;;;5053530;28;20427;-64
2022/10/01 03:14:39;;;;;;;53.55;35.95;;;31.30;99.90;;;;;;5053171;28;20476;-63
2022/10/01 03:17:07;;;;;;;44.90;32.55;;;31.30;99.90;;;;;;5069204;28;20116;-64
2022/10/01 03:19:33;;;;;;;51.80;33.78;;;31.30;99.90;;;;;;5073093;28;20029;-64
2022/10/01 03:22:00;;;;;;;48.30;37.05;;;31.40;99.90;;;;;;5072774;28;20112;-64
2022/10/01 03:24:27;;;;;;;52.83;37.85;;;31.40;99.90;;;;;;5053064;28;20025;-63
2022/10/01 03:26:57;;;;;;;67.65;51.28;;;31.20;99.90;;;;;;5053012;28;20031;-64
2022/10/01 03:29:24;;;;;;;49.33;37.00;;;31.10;99.90;;;;;;5052720;28;20024;-64
2022/10/01 03:31:51;;;;;;;52.53;40.17;;;31.00;99.90;;;;;;5054007;28;20040;-64
2022/10/01 03:34:18;;;;;;;43.45;33.15;;;30.90;99.90;;;;;;5053836;28;20021;-64
2022/10/01 03:36:45;;;;;;;46.03;34.08;;;30.90;99.90;;;;;;5052746;28;20041;-64
2022/10/01 03:39:12;;;;;;;47.35;33.83;;;30.80;99.90;;;;;;5052676;28;20048;-63
2022/10/01 03:41:39;;;;;;;51.22;34.78;;;30.80;99.90;;;;;;5053140;28;20025;-65
2022/10/01 03:44:06;;;;;;;48.47;34.58;;;30.80;99.90;;;;;;5053379;28;20025;-64
2022/10/01 03:46:32;;;;;;;43.15;32.50;;;30.70;99.90;;;;;;5053303;28;20468;-67
2022/10/01 03:48:59;;;;;;;41.08;31.85;;;30.70;99.90;;;;;;5055326;28;20029;-66
2022/10/01 03:51:27;;;;;;;56.53;35.92;;;30.70;99.90;;;;;;5061462;28;20029;-65
2022/10/01 03:53:55;;;;;;;49.42;33.55;;;30.70;99.90;;;;;;5052567;28;20029;-66
2022/10/01 03:56:23;;;;;;;60.00;39.55;;;30.90;99.90;;;;;;5052794;28;20072;-67
2022/10/01 03:58:50;;;;;;;53.70;38.47;;;31.00;99.90;;;;;;5052421;28;20029;-66
2022/10/01 04:01:17;;;;;;;45.92;34.15;;;31.00;99.90;;;;;;5052763;28;20074;-66
2022/10/01 04:03:43;;;;;;;45.58;35.10;;;31.10;99.90;;;;;;5052815;28;20028;-67
2022/10/01 04:06:11;;;;;;;51.10;36.28;;;31.10;99.90;;;;;;5052331;28;20479;-67
2022/10/01 04:08:38;;;;;;;55.42;38.60;;;31.20;99.90;;;;;;5052257;28;20057;-67
2022/10/01 04:11:06;;;;;;;52.47;40.10;;;31.40;99.90;;;;;;5052501;28;20024;-67
2022/10/01 04:13:33;;;;;;;44.40;31.98;;;31.50;99.90;;;;;;5055753;28;20467;-67
2022/10/01 04:16:20;;;;;;;38.20;30.85;;;31.70;99.90;;;;;;5056239;28;20060;-71
2022/10/01 04:18:46;;;;;;;38.72;30.45;;;31.80;99.90;;;;;;5016489;28;20500;-67
2022/10/01 04:21:14;;;;;;;34.30;27.98;;;31.70;99.90;;;;;;5016160;28;20034;-67
2022/10/01 04:23:41;;;;;;;41.03;29.20;;;31.50;99.90;;;;;;5014293;28;20064;-67
2022/10/01 04:26:08;;;;;;;41.05;29.45;;;31.60;99.90;;;;;;5014192;28;20503;-68
2022/10/01 04:28:34;;;;;;;32.55;23.77;;;31.70;99.90;;;;;;5014357;28;20088;-67
2022/10/01 04:33:47;;;;;;;34.05;22.60;;;32.00;99.90;;;;;;5014039;28;20076;-68
2022/10/01 04:36:14;;;;;;;68.50;59.70;;;32.00;99.90;;;;;;5014244;28;20218;-69
2022/10/01 04:38:40;;;;;;;121.03;95.25;;;31.90;99.90;;;;;;5013956;28;20044;-69
2022/10/01 04:41:08;;;;;;;57.55;47.17;;;32.00;99.90;;;;;;5013917;28;20054;-69
2022/10/01 04:43:37;;;;;;;65.13;46.33;;;32.00;99.90;;;;;;5013981;28;20045;-69
2022/10/01 04:46:06;;;;;;;28.77;20.80;;;31.90;99.90;;;;;;5014063;28;20029;-69
2022/10/01 04:48:33;;;;;;;36.65;25.67;;;32.00;99.90;;;;;;5013934;28;20046;-69
2022/10/01 04:50:59;;;;;;;26.98;19.70;;;32.00;99.90;;;;;;5013579;28;20130;-69
2022/10/01 04:53:28;;;;;;;32.92;21.13;;;32.00;99.90;;;;;;5032235;28;20021;-69
2022/10/01 04:55:55;;;;;;;30.27;22.85;;;32.00;99.90;;;;;;5060319;28;20683;-69
2022/10/01 04:58:21;;;;;;;22.10;15.65;;;32.10;99.90;;;;;;5078149;28;20028;-70
2022/10/01 05:00:49;;;;;;;14.82;11.25;;;32.20;99.90;;;;;;5077623;28;20528;-68
2022/10/01 05:03:16;;;;;;;24.58;16.58;;;32.30;99.90;;;;;;5081490;28;20162;-69
2022/10/01 05:05:43;;;;;;;20.92;16.58;;;32.50;99.90;;;;;;5081952;28;20027;-68
2022/10/01 05:08:12;;;;;;;20.73;15.88;;;32.80;99.80;;;;;;5090484;28;20059;-69
2022/10/01 05:10:39;;;;;;;45.15;35.75;;;32.80;99.40;;;;;;5085862;28;20020;-70
2022/10/01 05:13:05;;;;;;;61.53;45.10;;;32.80;99.90;;;;;;5081107;28;20016;-68
2022/10/01 05:15:32;;;;;;;88.72;63.13;;;33.00;99.90;;;;;;5084680;28;20126;-69
2022/10/01 05:17:58;;;;;;;73.32;53.63;;;33.10;99.90;;;;;;5085488;28;20071;-70
2022/10/01 05:20:27;;;;;;;78.47;58.88;;;33.20;99.90;;;;;;5080829;28;20024;-69
2022/10/01 05:22:55;;;;;;;83.40;60.60;;;33.10;99.90;;;;;;5084439;28;20024;-68
2022/10/01 05:25:22;;;;;;;85.97;61.75;;;32.90;99.90;;;;;;5084673;28;20024;-73
2022/10/01 05:27:49;;;;;;;78.45;56.70;;;32.80;99.90;;;;;;5083331;28;20560;-69
2022/10/01 05:30:22;;;;;;;91.85;62.67;;;32.80;99.90;;;;;;5095169;28;20043;-71
2022/10/01 05:33:00;;;;;;;74.30;54.33;;;32.70;99.90;;;;;;5083816;28;20028;-71
2022/10/01 05:35:27;;;;;;;75.40;55.05;;;32.60;99.90;;;;;;5069624;28;20067;-71
2022/10/01 05:37:58;;;;;;;68.60;54.45;;;32.60;99.90;;;;;;5056799;28;20490;-71
2022/10/01 05:40:27;;;;;;;70.50;54.08;;;32.50;99.90;;;;;;5055453;28;20073;-71
2022/10/01 05:42:57;;;;;;;61.75;47.47;;;32.50;99.90;;;;;;5055509;28;20225;-71
2022/10/01 05:45:25;;;;;;;103.03;60.40;;;32.50;99.90;;;;;;5055801;28;20025;-71
2022/10/01 05:48:04;;;;;;;70.53;52.08;;;32.50;99.90;;;;;;5055816;28;20278;-71
2022/10/01 05:50:33;;;;;;;69.57;53.67;;;32.50;99.90;;;;;;5055851;28;20028;-70
2022/10/01 05:53:01;;;;;;;74.80;54.35;;;32.50;99.90;;;;;;5066299;28;20025;-71
2022/10/01 05:55:32;;;;;;;63.47;50.65;;;32.50;99.90;;;;;;5055527;28;20057;-69
2022/10/01 05:58:03;;;;;;;61.22;46.00;;;32.70;99.90;;;;;;5055483;28;20021;-70
2022/10/01 06:00:30;;;;;;;55.33;42.93;;;32.70;99.90;;;;;;5055270;28;20025;-67
2022/10/01 06:02:58;;;;;;;56.58;42.55;;;32.70;99.90;;;;;;5054303;28;20025;-70
2022/10/01 06:05:26;;;;;;;53.40;38.90;;;32.90;99.00;;;;;;5057846;28;20411;-69
2022/10/01 06:07:53;;;;;;;52.08;37.15;;;33.00;98.70;;;;;;5062024;28;20112;-70
2022/10/01 06:10:23;;;;;;;44.13;31.67;;;33.10;99.10;;;;;;5054043;28;20107;-69
2022/10/01 06:12:50;;;;;;;44.88;35.17;;;33.30;98.50;;;;;;5058013;28;20112;-72
2022/10/01 06:15:17;;;;;;;45.10;34.03;;;33.50;98.10;;;;;;5060289;28;20499;-70
2022/10/01 06:17:44;;;;;;;41.78;33.28;;;33.70;97.50;;;;;;5053638;28;20211;-68
2022/10/01 06:20:13;;;;;;;48.97;34.83;;;33.70;97.30;;;;;;5054060;28;20033;-68
2022/10/01 06:22:41;;;;;;;52.65;36.65;;;33.90;97.00;;;;;;5053486;28;20112;-67
2022/10/01 06:25:14;;;;;;;48.88;33.63;;;33.90;97.40;;;;;;5053751;28;20511;-67
2022/10/01 06:27:41;;;;;;;36.97;28.45;;;34.00;96.90;;;;;;5054086;28;20533;-68
2022/10/01 06:30:08;;;;;;;41.97;27.27;;;34.10;95.90;;;;;;5053985;28;20037;-67
2022/10/01 06:32:35;;;;;;;36.42;26.30;;;34.10;95.70;;;;;;5053903;28;20475;-67
2022/10/01 06:35:02;;;;;;;32.67;25.48;;;34.00;95.40;;;;;;5053671;28;20083;-67
2022/10/01 06:37:29;;;;;;;33.60;24.05;;;33.90;94.70;;;;;;5053228;28;20021;-66
2022/10/01 06:39:55;;;;;;;39.92;27.30;;;33.80;94.80;;;;;;5053588;28;20392;-67
2022/10/01 06:42:22;;;;;;;34.75;27.88;;;33.80;95.70;;;;;;5053749;28;20036;-67
2022/10/01 06:44:48;;;;;;;41.60;26.65;;;33.70;95.50;;;;;;5058927;28;20051;-68
2022/10/01 06:47:15;;;;;;;38.65;29.00;;;33.60;95.60;;;;;;5059455;28;20021;-67
2022/10/01 06:49:41;;;;;;;34.47;25.13;;;33.60;96.00;;;;;;5053659;28;20025;-68
2022/10/01 06:55:00;;;;;;;42.35;26.95;;;33.50;95.60;;;;;;5053767;28;20024;-67
2022/10/01 06:57:27;;;;;;;33.40;25.30;;;33.50;95.60;;;;;;5053511;28;20017;-68
2022/10/01 06:59:54;;;;;;;28.95;23.60;;;33.50;95.00;;;;;;5053027;28;20055;-65
2022/10/01 07:02:26;;;;;;;32.83;24.25;;;33.50;95.70;;;;;;5067569;28;20036;-67
2022/10/01 07:04:57;;;;;;;31.83;21.48;;;33.40;95.60;;;;;;5073534;28;20378;-67
2022/10/01 07:07:29;;;;;;;16.67;10.83;;;33.40;95.80;;;;;;5073162;28;20036;-66
2022/10/01 07:09:57;;;;;;;21.10;10.38;;;33.40;94.40;;;;;;5061512;28;20102;-68
2022/10/01 07:12:24;;;;;;;12.82;7.72;;;33.40;94.00;;;;;;5074840;28;20020;-68
2022/10/01 07:14:51;;;;;;;20.40;8.48;;;33.30;94.00;;;;;;5081720;28;20024;-69
2022/10/01 07:17:17;;;;;;;55.70;10.55;;;33.20;94.40;;;;;;5079100;28;20111;-65
2022/10/01 07:19:46;;;;;;;51.60;12.00;;;32.80;97.50;;;;;;5084628;28;20150;-65
2022/10/01 07:22:13;;;;;;;48.00;21.60;;;32.30;99.20;;;;;;5083293;28;20052;-66
2022/10/01 07:24:39;;;;;;;37.60;16.42;;;31.90;99.90;;;;;;5082406;28;20012;-67
2022/10/01 07:27:06;;;;;;;84.25;55.13;;;31.60;99.90;;;;;;5082537;28;20474;-67
2022/10/01 07:29:33;;;;;;;24.05;12.27;;;31.30;99.90;;;;;;5096879;28;20398;-65
2022/10/01 07:32:00;;;;;;;24.20;10.10;;;31.00;99.90;;;;;;5083607;28;20017;-66
2022/10/01 07:34:29;;;;;;;20.45;8.77;;;30.90;99.90;;;;;;5084988;28;20455;-66
2022/10/01 07:36:56;;;;;;;19.40;8.23;;;30.70;99.90;;;;;;5073563;28;20526;-66
2022/10/01 07:39:23;;;;;;;9.90;5.60;;;30.60;99.90;;;;;;5084633;28;20048;-68
2022/10/01 07:41:51;;;;;;;9.10;5.38;;;30.30;99.90;;;;;;5094250;28;20028;-66
2022/10/01 07:44:18;;;;;;;9.15;6.38;;;30.00;99.90;;;;;;5096416;28;20188;-66
2022/10/01 07:46:46;;;;;;;17.42;7.32;;;29.90;99.90;;;;;;5094799;28;20030;-70
2022/10/01 07:49:12;;;;;;;10.65;7.10;;;29.60;99.90;;;;;;5082423;28;20025;-70
2022/10/01 07:51:39;;;;;;;19.48;7.70;;;29.30;99.90;;;;;;5089286;28;20016;-69
2022/10/01 07:54:05;;;;;;;15.10;7.53;;;29.10;99.90;;;;;;5088223;28;20470;-70
2022/10/01 07:56:32;;;;;;;13.25;6.90;;;28.90;99.90;;;;;;5090134;28;20051;-69
2022/10/01 07:58:58;;;;;;;17.80;11.38;;;28.90;99.90;;;;;;5089306;28;20013;-68
2022/10/01 08:01:25;;;;;;;36.17;25.20;;;28.80;99.90;;;;;;5085870;28;20050;-67
2022/10/01 08:03:52;;;;;;;23.00;15.27;;;28.70;99.90;;;;;;5089162;28;20024;-68
2022/10/01 08:06:20;;;;;;;14.30;8.38;;;28.70;99.90;;;;;;5086402;28;20028;-67
2022/10/01 08:08:47;;;;;;;16.63;11.85;;;28.80;99.90;;;;;;5087002;28;20061;-68
2022/10/01 08:11:16;;;;;;;20.48;11.45;;;28.90;99.90;;;;;;5086477;28;20032;-69
2022/10/01 08:13:45;;;;;;;20.15;9.65;;;29.10;99.90;;;;;;5081278;28;20027;-68
2022/10/01 08:16:12;;;;;;;22.95;10.65;;;29.10;99.90;;;;;;5096897;28;20438;-69
2022/10/01 08:18:39;;;;;;;20.90;9.20;;;28.90;99.90;;;;;;5096804;28;20020;-69
2022/10/01 08:21:06;;;;;;;20.08;8.88;;;28.90;99.90;;;;;;5096561;28;20039;-70
2022/10/01 08:23:34;;;;;;;16.33;8.77;;;29.00;99.90;;;;;;5096392;28;20366;-69
2022/10/01 08:26:04;;;;;;;18.08;8.20;;;29.10;99.90;;;;;;5096878;28;20409;-69
2022/10/01 08:28:30;;;;;;;16.13;8.18;;;29.10;99.90;;;;;;5096367;28;20096;-70
2022/10/01 08:30:57;;;;;;;21.02;10.00;;;29.10;99.90;;;;;;5096234;28;20077;-70
2022/10/01 08:33:23;;;;;;;26.67;12.15;;;29.00;99.90;;;;;;5079441;28;20104;-70
2022/10/01 08:35:50;;;;;;;18.10;9.85;;;28.80;99.90;;;;;;5073967;28;20048;-71
2022/10/01 08:38:18;;;;;;;18.40;10.30;;;28.70;99.90;;;;;;5074016;28;20013;-72
2022/10/01 08:40:50;;;;;;;18.38;11.23;;;28.80;99.90;;;;;;5073902;28;20048;-71
2022/10/01 08:43:18;;;;;;;;;;;28.90;99.90;;;;;;5074402;28;20023;-72
2022/10/01 08:45:48;;;;;;;36.25;25.05;;;29.00;99.90;;;;;;5071949;28;19912;-69
2022/10/01 08:48:27;;;;;;;82.63;74.40;;;29.00;99.90;;;;;;5074478;28;20111;-71
2022/10/01 08:51:10;;;;;;;46.75;28.52;;;29.00;99.90;;;;;;5075335;28;20074;-67
2022/10/01 08:53:41;;;;;;;84.35;75.10;;;29.00;99.90;;;;;;5075490;28;20027;-70
2022/10/01 08:56:34;;;;;;;26.45;16.65;;;29.10;99.90;;;;;;5073796;28;20100;-65
2022/10/01 08:59:22;;;;;;;18.15;12.40;;;29.10;99.90;;;;;;5062270;28;20483;-64
2022/10/01 09:01:48;;;;;;;18.02;12.45;;;29.20;99.90;;;;;;5062782;28;20433;-66
2022/10/01 09:04:15;;;;;;;21.20;12.43;;;29.20;99.90;;;;;;5083449;28;20079;-67
2022/10/01 09:06:48;;;;;;;35.78;24.45;;;29.10;99.90;;;;;;5084909;28;20051;-67
2022/10/01 09:09:34;;;;;;;35.88;24.58;;;29.10;99.90;;;;;;5079947;28;20024;-68
2022/10/01 09:12:10;;;;;;;46.33;33.13;;;29.20;99.90;;;;;;5081350;28;20024;-66
2022/10/01 09:14:48;;;;;;;37.13;24.65;;;29.20;99.90;;;;;;5082560;28;20078;-67
2022/10/01 09:17:14;;;;;;;35.92;21.52;;;29.20;99.90;;;;;;5080218;28;20063;-67
2022/10/01 09:19:59;;;;;;;40.78;22.88;;;29.30;99.90;;;;;;5084318;28;20028;-66
2022/10/01 09:22:39;;;;;;;144.98;129.40;;;29.40;99.90;;;;;;5084501;28;20436;-66
2022/10/01 09:25:25;;;;;;;41.60;29.80;;;29.20;99.90;;;;;;5082789;28;20028;-67
2022/10/01 09:28:00;;;;;;;31.42;21.48;;;29.20;99.90;;;;;;5081544;28;20051;-65
2022/10/01 09:30:29;;;;;;;37.47;24.83;;;29.10;99.90;;;;;;5079809;28;20089;-67
2022/10/01 09:33:04;;;;;;;30.70;17.63;;;29.20;99.90;;;;;;5084473;28;20068;-67
2022/10/01 09:35:43;;;;;;;41.95;24.30;;;29.20;99.90;;;;;;5072784;28;20027;-67
2022/10/01 09:38:23;;;;;;;205.85;146.85;;;29.00;99.90;;;;;;5074788;28;20032;-67
2022/10/01 09:40:59;;;;;;;139.73;92.88;;;29.10;99.90;;;;;;5078668;28;20070;-67
2022/10/01 09:43:30;;;;;;;83.07;46.20;;;29.20;99.90;;;;;;5076754;28;20028;-66
2022/10/01 09:45:57;;;;;;;59.75;37.05;;;29.30;99.90;;;;;;5083164;28;20085;-67
2022/10/01 09:48:24;;;;;;;55.13;34.30;;;29.20;99.90;;;;;;5085026;28;20112;-66
2022/10/01 09:50:57;;;;;;;55.20;31.70;;;29.30;99.90;;;;;;5079364;28;20040;-65
2022/10/01 09:53:42;;;;;;;73.22;43.33;;;29.20;99.90;;;;;;5074445;28;20024;-66
2022/10/01 09:56:15;;;;;;;98.65;58.50;;;29.20;99.90;;;;;;5068432;28;20374;-66
2022/10/01 09:58:48;;;;;;;109.18;61.35;;;29.20;99.90;;;;;;5063868;28;20029;-66
2022/10/01 10:01:22;;;;;;;75.95;45.05;;;29.20;99.90;;;;;;5058706;28;20095;-66
2022/10/01 10:03:58;;;;;;;63.50;41.20;;;29.20;99.90;;;;;;5088574;28;20492;-66
2022/10/01 10:06:29;;;;;;;100.40;69.85;;;29.20;99.90;;;;;;5084683;28;20062;-65
2022/10/01 10:08:58;;;;;;;72.85;47.40;;;29.20;99.90;;;;;;5078946;28;20033;-65
2022/10/01 10:11:27;;;;;;;68.55;49.15;;;29.30;99.90;;;;;;5079045;28;20039;-65
2022/10/01 10:14:02;;;;;;;92.95;66.50;;;29.30;99.90;;;;;;5079395;28;20032;-66
2022/10/01 10:16:31;;;;;;;96.68;62.72;;;29.30;99.90;;;;;;5064688;28;20021;-64
2022/10/01 10:19:01;;;;;;;86.55;53.75;;;29.20;99.90;;;;;;5076146;28;20029;-65
2022/10/01 10:21:30;;;;;;;64.80;40.97;;;29.20;99.90;;;;;;5079311;28;20042;-65
2022/10/01 10:24:03;;;;;;;54.17;37.50;;;29.10;99.90;;;;;;5080518;28;20462;-66
2022/10/01 10:26:32;;;;;;;55.65;35.38;;;29.00;99.90;;;;;;5082135;28;20032;-65
2022/10/01 10:29:01;;;;;;;62.08;36.08;;;29.00;99.90;;;;;;5078721;28;20033;-65
2022/10/01 10:31:36;;;;;;;50.88;34.85;;;29.00;99.90;;;;;;5073375;28;20035;-64
2022/10/01 10:34:14;;;;;;;53.35;33.88;;;29.10;99.90;;;;;;5073036;28;20430;-65
2022/10/01 10:36:42;;;;;;;54.33;33.58;;;29.10;99.90;;;;;;5073048;28;20036;-65
2022/10/01 10:39:29;;;;;;;57.95;36.05;;;29.10;99.90;;;;;;5073086;28;20109;-64
2022/10/01 10:41:57;;;;;;;51.97;33.80;;;29.10;99.90;;;;;;5073446;28;20117;-66
2022/10/01 10:44:30;;;;;;;53.75;34.65;;;29.10;99.90;;;;;;5073331;28;20490;-65
2022/10/01 10:47:02;;;;;;;54.58;38.80;;;29.10;99.90;;;;;;5073363;28;20403;-65
2022/10/01 10:49:32;;;;;;;62.13;36.33;;;29.10;99.90;;;;;;5071600;28;20029;-64
2022/10/01 10:52:00;;;;;;;56.13;36.65;;;29.10;99.90;;;;;;5073110;28;20552;-64
2022/10/01 10:54:26;;;;;;;61.38;38.97;;;29.10;99.90;;;;;;5073294;28;20475;-64
2022/10/01 10:57:01;;;;;;;63.90;40.60;;;29.20;99.90;;;;;;5073433;28;20020;-65
2022/10/01 10:59:30;;;;;;;57.67;37.30;;;29.20;99.90;;;;;;5073177;28;20074;-65
2022/10/01 11:01:58;;;;;;;44.72;31.33;;;29.20;99.90;;;;;;5071433;28;20032;-64
2022/10/01 11:04:42;;;;;;;45.55;27.20;;;29.20;99.90;;;;;;5071839;28;20475;-64
2022/10/01 11:07:12;;;;;;;44.85;25.50;;;29.20;99.90;;;;;;5072402;28;20020;-64
2022/10/01 11:10:07;;;;;;;55.45;31.08;;;29.20;99.90;;;;;;5072678;28;20024;-65
2022/10/01 11:12:55;;;;;;;71.65;42.10;;;29.20;99.90;;;;;;5072898;28;20070;-66
2022/10/01 11:15:42;;;;;;;77.55;38.35;;;29.10;99.90;;;;;;5073107;28;20429;-64
2022/10/01 11:18:47;;;;;;;68.57;39.20;;;28.90;99.90;;;;;;5072957;28;20480;-64
2022/10/01 11:21:27;;;;;;;65.88;33.60;;;28.90;99.90;;;;;;5072557;28;20483;-64
2022/10/01 11:23:59;;;;;;;72.47;38.60;;;28.70;99.90;;;;;;5073070;28;20024;-64
2022/10/01 11:26:48;;;;;;;77.20;44.22;;;28.70;99.90;;;;;;5073030;28;20032;-64
2022/10/01 11:29:29;;;;;;;92.75;60.67;;;28.80;99.90;;;;;;5072349;28;20043;-64
2022/10/01 11:32:16;;;;;;;71.72;48.03;;;28.70;99.90;;;;;;5073014;28;20108;-64
2022/10/01 11:35:18;;;;;;;123.43;84.88;;;28.80;99.90;;;;;;5072661;28;20048;-68
2022/10/01 11:38:13;;;;;;;48.20;26.45;;;28.70;99.90;;;;;;5072664;28;20025;-63
2022/10/01 11:40:42;;;;;;;46.00;24.80;;;28.70;99.90;;;;;;5030512;28;20048;-63
2022/10/01 11:43:23;;;;;;;44.78;23.08;;;28.70;99.90;;;;;;5030543;28;20044;-63
2022/10/01 11:45:59;;;;;;;40.83;21.35;;;28.70;99.90;;;;;;5030847;28;20034;-63
2022/10/01 11:48:32;;;;;;;38.25;22.60;;;28.70;99.90;;;;;;5030624;28;20029;-63
2022/10/01 11:51:11;;;;;;;50.60;24.40;;;28.70;99.90;;;;;;5030715;28;20072;-63
2022/10/01 11:53:47;;;;;;;51.45;29.35;;;28.70;99.90;;;;;;5030571;28;20543;-63
2022/10/01 11:59:12;;;;;;;35.15;23.05;;;28.60;99.90;;;;;;5030476;28;20041;-63
2022/10/01 12:01:54;;;;;;;47.03;23.27;;;28.60;99.90;;;;;;5030597;28;20037;-62
2022/10/01 12:04:27;;;;;;;48.85;26.50;;;28.50;99.90;;;;;;5030691;28;20492;-64
2022/10/01 12:07:19;;;;;;;41.15;23.50;;;28.50;99.90;;;;;;5020926;28;20488;-63
2022/10/01 12:09:46;;;;;;;36.38;21.95;;;28.50;99.90;;;;;;5027392;28;20392;-63
2022/10/01 12:12:35;;;;;;;32.25;20.75;;;28.50;99.90;;;;;;5030189;28;20042;-63
2022/10/01 12:15:14;;;;;;;31.63;17.98;;;28.50;99.90;;;;;;4990985;28;20038;-63
2022/10/01 12:17:44;;;;;;;27.27;15.20;;;28.50;99.90;;;;;;4982035;28;20453;-62
2022/10/01 12:20:32;;;;;;;24.40;13.43;;;28.50;99.90;;;;;;4991205;28;20065;-63
2022/10/01 12:23:01;;;;;;;22.20;13.85;;;28.50;99.90;;;;;;4952122;29;20118;-65
2022/10/01 12:25:41;;;;;;;25.02;14.75;;;28.50;99.90;;;;;;4952416;29;20126;-65
2022/10/01 12:28:16;;;;;;;34.85;15.70;;;28.50;99.90;;;;;;4952333;29;20114;-63
2022/10/01 12:30:54;;;;;;;26.27;15.23;;;28.50;99.90;;;;;;4952250;29;20050;-63
2022/10/01 12:33:25;;;;;;;24.08;15.43;;;28.50;99.90;;;;;;4953632;28;20035;-62
2022/10/01 12:36:19;;;;;;;27.98;15.85;;;28.50;99.90;;;;;;4955859;29;20027;-62
2022/10/01 12:39:14;;;;;;;29.35;14.35;;;28.50;99.90;;;;;;4955396;29;20431;-63
2022/10/01 12:42:01;;;;;;;27.63;15.45;;;28.40;99.90;;;;;;4955834;29;20153;-63
2022/10/01 12:44:55;;;;;;;32.63;17.90;;;28.50;99.90;;;;;;4955670;29;20462;-62
2022/10/01 12:47:44;;;;;;;35.75;20.70;;;28.50;99.90;;;;;;4955400;29;20042;-63
2022/10/01 12:50:50;;;;;;;30.17;20.63;;;28.50;99.90;;;;;;4955641;29;20031;-62
2022/10/01 12:53:25;;;;;;;35.10;20.77;;;28.50;99.90;;;;;;4955398;29;20035;-63
2022/10/01 12:56:03;;;;;;;33.53;19.45;;;28.50;99.90;;;;;;4955521;29;20041;-63
2022/10/01 12:58:51;;;;;;;30.95;19.67;;;28.50;99.90;;;;;;4955284;29;20028;-63